Time;durP1;ratioP1;P1;durP2;ratioP2;P2;SDS_P1;SDS_P2;PMS_P1;PMS_P2;Temp;Humidity;BMP_temperature;BMP_pressure;BME280_temperature;BME280_humidity;BME280_pressure;Samples;Min_cycle;Max_cycle;Signal;HPM_P1;HPM_P2
2022/11/18 00:00:49;;;;;;;;;1.00;1.00;;;;;12.54;59.27;99227.78;5075842;28;46869;-42
2022/11/18 00:03:15;;;;;;;;;5.00;2.50;;;;;12.52;59.96;99226.19;5080311;27;46407;-42
2022/11/18 00:05:40;;;;;;;;;4.75;2.00;;;;;12.51;59.52;99225.34;5075400;28;45285;-42
2022/11/18 00:08:06;;;;;;;;;0.00;0.00;;;;;12.50;59.27;99230.66;5078189;28;68151;-42
2022/11/18 00:10:31;;;;;;;;;4.00;2.00;;;;;12.48;59.46;99235.16;5068884;28;45302;-42
2022/11/18 00:15:41;;;;;;;;;1.00;1.00;;;;;12.44;59.70;99252.03;5073167;27;45846;-42
2022/11/18 00:18:06;;;;;;;;;1.00;1.00;;;;;12.40;59.54;99259.25;5073836;27;45430;-42
2022/11/18 00:20:33;;;;;;;;;0.75;0.50;;;;;12.34;59.75;99247.34;5070159;28;47256;-41
2022/11/18 00:22:58;;;;;;;;;1.00;1.00;;;;;12.34;59.72;99260.44;5069009;27;46214;-42
2022/11/18 00:25:24;;;;;;;;;1.00;0.00;;;;;12.34;60.22;99257.81;5077587;28;45249;-42
2022/11/18 00:27:49;;;;;;;;;0.75;0.00;;;;;12.34;59.98;99260.44;5074675;27;45430;-42
2022/11/18 00:30:15;;;;;;;;;2.00;2.00;;;;;12.32;60.03;99267.56;5079560;27;70013;-45
2022/11/18 00:32:40;;;;;;;;;0.25;0.25;;;;;12.33;60.22;99274.47;5080408;28;47654;-41
2022/11/18 00:35:06;;;;;;;;;2.25;1.00;;;;;12.32;59.55;99278.06;5067183;28;45379;-41
2022/11/18 00:37:32;;;;;;;;;1.50;0.00;;;;;12.32;59.78;99290.31;5070406;27;45474;-41
2022/11/18 00:39:57;;;;;;;;;2.00;1.25;;;;;12.32;60.17;99287.69;5070124;28;45170;-41
2022/11/18 00:43:05;;;;;;;;;2.00;1.00;;;;;12.34;59.98;99293.69;5091469;27;45282;-42
2022/11/18 00:45:11;;;;;;;;;2.00;1.00;;;;;12.32;59.85;99295.56;5058431;28;45937;-43
2022/11/18 00:47:36;;;;;;;;;1.00;1.00;;;;;12.33;59.76;99298.09;5074357;27;52559;-43
2022/11/18 00:50:02;;;;;;;;;2.00;0.25;;;;;12.31;59.67;99307.84;5075295;28;72906;-43
2022/11/18 00:52:28;;;;;;;;;1.75;0.00;;;;;12.29;60.18;99314.94;5070153;27;46224;-40
2022/11/18 00:54:53;;;;;;;;;0.75;0.75;;;;;12.27;59.74;99305.47;5070102;27;53273;-42
2022/11/18 00:57:18;;;;;;;;;1.00;0.75;;;;;12.25;59.63;99307.34;5070638;27;53856;-41
2022/11/18 00:59:44;;;;;;;;;1.00;1.00;;;;;12.23;60.17;99315.28;5074089;27;69226;-42
2022/11/18 01:02:09;;;;;;;;;0.25;0.25;;;;;12.22;60.05;99316.22;5079055;27;75657;-40
2022/11/18 01:04:34;;;;;;;;;0.00;0.00;;;;;12.19;60.09;99318.19;5076653;27;72167;-41
2022/11/18 01:07:00;;;;;;;;;0.25;0.25;;;;;12.20;60.18;99317.22;5078707;27;45374;-41
2022/11/18 01:09:25;;;;;;;;;3.50;2.00;;;;;12.21;60.15;99317.16;5067882;28;48840;-40
2022/11/18 01:14:34;;;;;;;;;3.25;0.75;;;;;12.23;60.06;99328.41;5073557;27;45271;-42
2022/11/18 01:16:59;;;;;;;;;2.50;1.00;;;;;12.24;59.88;99327.47;5072043;28;45189;-44
2022/11/18 01:19:25;;;;;;;;;2.75;0.50;;;;;12.25;60.39;99326.56;5071914;27;64263;-40
2022/11/18 01:21:50;;;;;;;;;2.50;0.50;;;;;12.26;60.49;99328.22;5077823;28;45428;-41
2022/11/18 01:24:16;;;;;;;;;0.50;0.00;;;;;12.26;59.98;99330.84;5071949;27;45332;-43
2022/11/18 01:26:41;;;;;;;;;2.50;0.00;;;;;12.25;60.22;99325.69;5071391;28;45442;-41
2022/11/18 01:29:07;;;;;;;;;1.00;0.00;;;;;12.23;59.98;99332.81;5068937;27;45450;-41
2022/11/18 01:31:33;;;;;;;;;1.00;1.00;;;;;12.22;60.33;99329.34;5067501;28;46977;-42
2022/11/18 01:33:58;;;;;;;;;1.25;0.00;;;;;12.21;59.95;99337.31;5073304;27;73365;-42
2022/11/18 01:36:26;;;;;;;;;1.00;0.00;;;;;12.19;60.19;99342.63;5075379;28;62764;-41
2022/11/18 01:38:52;;;;;;;;;1.25;0.50;;;;;12.19;59.97;99339.16;5071628;27;45750;-40
2022/11/18 01:41:19;;;;;;;;;0.00;0.00;;;;;12.20;60.17;99344.34;5078183;28;46341;-42
2022/11/18 01:43:47;;;;;;;;;1.00;1.00;;;;;12.19;60.30;99341.78;5073370;28;45310;-41
2022/11/18 01:46:12;;;;;;;;;1.75;1.00;;;;;12.19;59.98;99344.41;5069575;27;45375;-42
2022/11/18 01:48:38;;;;;;;;;0.00;0.00;;;;;12.19;60.52;99349.66;5069295;27;56720;-41
2022/11/18 01:51:07;;;;;;;;;0.00;0.00;;;;;12.18;59.90;99348.78;5076677;28;46117;-40
2022/11/18 01:53:38;;;;;;;;;0.00;0.00;;;;;12.18;60.26;99348.78;5074066;27;45898;-41
2022/11/18 01:56:07;;;;;;;;;1.25;0.25;;;;;12.18;60.24;99358.44;5071082;28;46999;-41
2022/11/18 01:58:40;;;;;;;;;1.00;1.00;;;;;12.17;60.36;99360.22;5071594;27;45393;-43
2022/11/18 02:01:06;;;;;;;;;0.00;0.00;;;;;12.14;60.20;99353.34;5071662;27;46436;-42
2022/11/18 02:03:32;;;;;;;;;1.50;1.00;;;;;12.11;60.28;99365.78;5063386;27;45367;-42
2022/11/18 02:05:59;;;;;;;;;2.00;0.00;;;;;12.11;60.50;99371.03;5073344;28;45336;-41
2022/11/18 02:08:24;;;;;;;;;0.00;0.00;;;;;12.10;60.55;99361.50;5079239;28;45293;-41
2022/11/18 02:10:50;;;;;;;;;0.00;0.00;;;;;12.12;60.26;99373.59;5065606;28;60223;-42
2022/11/18 02:13:16;;;;;;;;;1.00;0.00;;;;;12.13;60.16;99371.81;5070129;28;51438;-42
2022/11/18 02:16:00;;;;;;;;;0.00;0.00;;;;;12.17;60.54;99388.25;5070214;28;67256;-44
2022/11/18 02:18:34;;;;;;;;;0.50;0.00;;;;;12.19;60.30;99378.50;5070181;27;45292;-42
2022/11/18 02:21:38;;;;;;;;;0.00;0.00;;;;;12.21;60.11;99381.88;5074508;28;46549;-42
2022/11/18 02:24:26;;;;;;;;;0.00;0.00;;;;;12.22;60.14;99386.22;5069280;28;45573;-41
2022/11/18 02:27:16;;;;;;;;;0.50;0.50;;;;;12.20;60.18;99390.66;5040713;28;45307;-41
2022/11/18 02:30:08;;;;;;;;;0.00;0.00;;;;;12.14;60.07;99395.31;5068134;28;45441;-41
2022/11/18 02:32:52;;;;;;;;;1.00;1.00;;;;;12.12;60.04;99393.72;5071983;28;46884;-43
2022/11/18 02:35:36;;;;;;;;;0.75;0.00;;;;;12.10;60.43;99396.44;5073340;27;45361;-41
2022/11/18 02:38:20;;;;;;;;;2.00;0.00;;;;;12.10;60.29;99406.09;5077199;27;45742;-42
2022/11/18 02:40:48;;;;;;;;;0.00;0.00;;;;;12.11;60.42;99405.13;5071170;28;45622;-41
2022/11/18 02:43:55;;;;;;;;;0.00;0.00;;;;;12.09;60.30;99401.75;5077640;28;45387;-41
2022/11/18 02:46:25;;;;;;;;;0.00;0.00;;;;;12.09;60.42;99404.38;5085900;27;45524;-41
2022/11/18 02:48:52;;;;;;;;;0.00;0.00;;;;;12.10;60.32;99409.53;5076881;28;45611;-40
2022/11/18 02:51:22;;;;;;;;;1.00;0.00;;;;;12.08;60.31;99398.28;5074248;28;54452;-43
2022/11/18 02:53:49;;;;;;;;;0.25;0.00;;;;;12.09;60.76;99407.00;5070995;27;45335;-42
2022/11/18 02:56:15;;;;;;;;;0.00;0.00;;;;;12.07;60.42;99414.94;5071750;28;63776;-42
2022/11/18 02:58:41;;;;;;;;;2.00;0.00;;;;;12.09;60.09;99413.13;5069028;28;45237;-41
2022/11/18 03:01:06;;;;;;;;;3.25;0.00;;;;;12.08;60.56;99418.44;5074117;27;72794;-41
2022/11/18 03:03:34;;;;;;;;;1.00;0.00;;;;;12.09;60.34;99412.25;5067476;28;64210;-40
2022/11/18 03:06:26;;;;;;;;;0.00;0.00;;;;;12.10;60.33;99419.19;5065522;27;45363;-40
2022/11/18 03:09:12;;;;;;;;;0.00;0.00;;;;;12.13;60.07;99426.91;5071057;27;45294;-40
2022/11/18 03:11:52;;;;;;;;;0.00;0.00;;;;;12.12;60.05;99426.03;5082049;27;45998;-40
2022/11/18 03:14:46;;;;;;;;;0.00;0.00;;;;;12.14;59.94;99428.56;5078696;27;46191;-39
2022/11/18 03:17:24;;;;;;;;;1.00;1.00;;;;;12.13;60.06;99435.59;5057747;27;45764;-40
2022/11/18 03:20:02;;;;;;;;;0.00;0.00;;;;;12.14;60.09;99439.91;5076041;28;45318;-40
2022/11/18 03:22:32;;;;;;;;;0.00;0.00;;;;;12.15;59.74;99432.91;5080285;28;45433;-40
2022/11/18 03:25:03;;;;;;;;;1.00;1.00;;;;;12.14;60.04;99429.41;5099641;27;45480;-40
2022/11/18 03:27:47;;;;;;;;;0.00;0.00;;;;;12.16;60.01;99431.97;5066113;27;45414;-40
2022/11/18 03:30:16;;;;;;;;;0.00;0.00;;;;;12.10;60.28;99427.91;5073358;27;45309;-40
2022/11/18 03:32:48;;;;;;;;;0.00;0.00;;;;;12.08;60.11;99435.00;5070581;27;45287;-39
2022/11/18 03:35:19;;;;;;;;;0.00;0.00;;;;;12.09;60.30;99441.09;5069774;28;45836;-39
2022/11/18 03:37:45;;;;;;;;;0.00;0.00;;;;;12.07;60.04;99440.31;5073845;27;45569;-39
2022/11/18 03:40:17;;;;;;;;;0.00;0.00;;;;;12.07;60.46;99440.31;5065372;28;45440;-39
2022/11/18 03:42:46;;;;;;;;;0.00;0.00;;;;;12.08;60.44;99448.13;5071055;28;45551;-41
2022/11/18 03:45:16;;;;;;;;;0.00;0.00;;;;;12.10;60.46;99453.28;5077022;27;47440;-39
2022/11/18 03:47:46;;;;;;;;;0.00;0.00;;;;;12.06;60.36;99457.84;5071990;28;45701;-45
2022/11/18 03:50:19;;;;;;;;;0.00;0.00;;;;;12.09;60.33;99460.31;5070228;27;45283;-40
2022/11/18 03:52:46;;;;;;;;;0.50;0.00;;;;;12.10;60.41;99475.09;5078594;28;45149;-40
2022/11/18 03:55:16;;;;;;;;;1.00;0.00;;;;;12.10;60.23;99477.72;5073719;27;45529;-40
2022/11/18 03:57:52;;;;;;;;;0.50;0.50;;;;;12.08;60.66;99479.59;5063907;27;45368;-40
2022/11/18 04:00:19;;;;;;;;;0.00;0.00;;;;;12.09;60.39;99483.91;5063881;27;45419;-40
2022/11/18 04:02:46;;;;;;;;;1.25;0.00;;;;;12.10;60.19;99479.50;5073583;28;45362;-40
2022/11/18 04:05:12;;;;;;;;;0.00;0.00;;;;;12.11;60.61;99486.44;5071361;27;45394;-39
2022/11/18 04:07:56;;;;;;;;;2.00;0.00;;;;;12.10;60.67;99492.63;5079002;27;61841;-40
2022/11/18 04:10:28;;;;;;;;;1.00;0.00;;;;;12.08;60.77;99490.06;5068454;27;45433;-40
2022/11/18 04:13:16;;;;;;;;;0.75;0.00;;;;;12.07;60.55;99493.59;5076228;28;45296;-40
2022/11/18 04:15:42;;;;;;;;;0.00;0.00;;;;;12.09;60.17;99501.41;5070497;28;46132;-40
2022/11/18 04:18:08;;;;;;;;;3.00;0.00;;;;;12.06;60.24;99498.97;5073655;27;64139;-40
2022/11/18 04:20:33;;;;;;;;;0.00;0.00;;;;;12.05;60.31;99508.59;5082056;27;45276;-44
2022/11/18 04:22:59;;;;;;;;;3.00;0.00;;;;;12.06;60.37;99509.47;5077616;27;45517;-40
2022/11/18 04:25:24;;;;;;;;;1.00;0.00;;;;;12.06;60.57;99517.31;5068641;27;45984;-41
2022/11/18 04:27:50;;;;;;;;;1.00;1.00;;;;;12.05;60.53;99519.06;5073232;27;50976;-40
2022/11/18 04:30:16;;;;;;;;;0.00;0.00;;;;;12.05;60.47;99520.84;5070057;27;45375;-40
2022/11/18 04:32:41;;;;;;;;;0.50;0.00;;;;;12.04;60.37;99529.63;5074180;28;45362;-40
2022/11/18 04:35:07;;;;;;;;;0.00;0.00;;;;;12.02;60.47;99532.34;5075730;27;71014;-40
2022/11/18 04:37:32;;;;;;;;;2.00;0.00;;;;;12.02;60.50;99534.97;5074172;28;45704;-41
2022/11/18 04:39:57;;;;;;;;;0.75;0.75;;;;;12.02;60.74;99539.38;5070350;28;59523;-40
2022/11/18 04:42:23;;;;;;;;;1.25;0.00;;;;;12.01;60.30;99545.56;5078925;27;57155;-40
2022/11/18 04:44:48;;;;;;;;;0.50;0.00;;;;;12.00;60.32;99551.72;5088072;27;47538;-40
2022/11/18 04:47:13;;;;;;;;;0.00;0.00;;;;;11.99;60.52;99550.88;5074345;27;59737;-40
2022/11/18 04:49:39;;;;;;;;;0.00;0.00;;;;;11.95;60.49;99546.69;5077013;27;63096;-40
2022/11/18 04:52:04;;;;;;;;;0.00;0.00;;;;;11.95;60.46;99557.19;5069217;27;66333;-40
2022/11/18 04:54:30;;;;;;;;;0.00;0.00;;;;;11.95;60.74;99554.56;5072034;28;46141;-39
2022/11/18 04:56:55;;;;;;;;;0.00;0.00;;;;;11.94;60.56;99558.13;5077319;27;45267;-39
2022/11/18 04:59:24;;;;;;;;;2.00;0.00;;;;;11.92;60.56;99552.97;5071165;27;45197;-39
2022/11/18 05:01:49;;;;;;;;;2.00;0.00;;;;;11.90;60.35;99552.19;5063271;27;45312;-40
2022/11/18 05:04:17;;;;;;;;;0.00;0.00;;;;;11.89;60.74;99560.94;5073153;28;45995;-39
2022/11/18 05:06:42;;;;;;;;;1.00;0.00;;;;;11.87;60.60;99552.31;5074129;28;45309;-40
2022/11/18 05:09:08;;;;;;;;;0.50;0.50;;;;;11.86;60.85;99552.38;5063309;28;68912;-39
2022/11/18 05:14:18;;;;;;;;;0.25;0.00;;;;;11.85;60.67;99562.03;5073555;27;45270;-39
2022/11/18 05:16:43;;;;;;;;;5.00;1.00;;;;;11.83;60.69;99563.88;5074814;28;67202;-40
2022/11/18 05:19:09;;;;;;;;;4.25;1.00;;;;;11.81;60.58;99560.50;5080162;27;45405;-39
2022/11/18 05:21:35;;;;;;;;;2.25;1.00;;;;;11.78;60.81;99561.50;5075059;27;45636;-39
2022/11/18 05:24:01;;;;;;;;;0.25;0.25;;;;;11.76;60.86;99565.13;5079986;27;46008;-39
2022/11/18 05:26:27;;;;;;;;;1.25;1.25;;;;;11.72;60.64;99571.44;5068841;27;45286;-39
2022/11/18 05:28:52;;;;;;;;;3.00;0.75;;;;;11.72;60.94;99567.06;5063173;28;59415;-39
2022/11/18 05:31:17;;;;;;;;;2.00;1.00;;;;;11.73;61.16;99578.38;5071415;28;64342;-39
2022/11/18 05:33:44;;;;;;;;;0.00;0.00;;;;;11.72;60.82;99579.28;5070193;28;45254;-39
2022/11/18 05:36:13;;;;;;;;;2.00;0.00;;;;;11.70;60.74;99570.66;5070310;27;45817;-39
2022/11/18 05:38:38;;;;;;;;;1.00;0.00;;;;;11.68;60.69;99586.47;5080697;28;45376;-39
2022/11/18 05:41:04;;;;;;;;;2.50;0.00;;;;;11.67;60.70;99583.91;5076955;27;45267;-40
2022/11/18 05:43:30;;;;;;;;;1.75;1.00;;;;;11.67;60.61;99584.78;5075515;27;45472;-39
2022/11/18 05:45:56;;;;;;;;;2.50;1.00;;;;;11.66;60.61;99588.31;5069338;28;46100;-39
2022/11/18 05:48:21;;;;;;;;;0.75;0.75;;;;;11.65;60.71;99591.88;5080020;27;45271;-39
2022/11/18 05:50:48;;;;;;;;;3.00;0.25;;;;;11.65;60.69;99581.41;5076080;27;45445;-40
2022/11/18 05:53:15;;;;;;;;;5.00;1.00;;;;;11.66;60.60;99587.47;5072694;27;47633;-40
2022/11/18 05:55:57;;;;;;;;;2.25;1.00;;;;;11.65;60.73;99591.00;5067288;27;45782;-39
2022/11/18 05:58:22;;;;;;;;;3.75;1.00;;;;;11.65;60.52;99591.88;5075073;28;45397;-39
2022/11/18 06:00:50;;;;;;;;;1.00;0.00;;;;;11.61;60.82;99590.31;5070143;27;45205;-39
2022/11/18 06:03:20;;;;;;;;;5.00;1.00;;;;;11.62;60.45;99606.91;5072302;27;46210;-39
2022/11/18 06:05:46;;;;;;;;;3.00;1.00;;;;;11.62;61.04;99606.91;5067881;28;45528;-39
2022/11/18 06:08:12;;;;;;;;;1.00;1.00;;;;;11.61;60.54;99600.78;5070550;27;67207;-39
2022/11/18 06:10:40;;;;;;;;;1.25;1.00;;;;;11.61;60.71;99611.28;5063213;28;45287;-39
2022/11/18 06:13:07;;;;;;;;;2.50;1.00;;;;;11.62;60.98;99609.53;5069068;28;74455;-39
2022/11/18 06:15:38;;;;;;;;;2.00;1.00;;;;;11.62;60.75;99620.00;5076707;27;45307;-39
2022/11/18 06:18:11;;;;;;;;;1.00;0.75;;;;;11.63;60.60;99624.31;5075596;28;45234;-39
2022/11/18 06:20:38;;;;;;;;;1.50;1.00;;;;;11.63;60.39;99629.56;5074911;27;45795;-39
2022/11/18 06:23:03;;;;;;;;;4.00;1.00;;;;;11.60;60.54;99635.81;5067049;27;45406;-39
2022/11/18 06:25:29;;;;;;;;;2.75;0.50;;;;;11.59;60.40;99636.72;5075830;28;55025;-39
2022/11/18 06:27:56;;;;;;;;;2.75;0.75;;;;;11.59;60.43;99642.78;5066937;28;56686;-39
2022/11/18 06:30:22;;;;;;;;;1.00;1.00;;;;;11.59;60.33;99645.41;5072909;28;45460;-39
2022/11/18 06:32:47;;;;;;;;;3.75;1.00;;;;;11.58;60.65;99648.97;5073037;27;46213;-39
2022/11/18 06:35:12;;;;;;;;;2.00;0.00;;;;;11.58;60.70;99658.63;5068621;28;45532;-39
2022/11/18 06:37:38;;;;;;;;;2.00;0.50;;;;;11.60;60.47;99656.78;5067074;28;67720;-39
2022/11/18 06:40:03;;;;;;;;;1.00;0.00;;;;;11.61;60.52;99652.38;5071695;28;45478;-38
2022/11/18 06:45:29;;;;;;;;;1.00;1.00;;;;;11.56;60.82;99673.53;5050641;28;45443;-39
2022/11/18 06:47:59;;;;;;;;;3.00;1.00;;;;;11.52;60.39;99674.63;5069468;27;60558;-40
2022/11/18 06:50:25;;;;;;;;;1.00;1.00;;;;;11.52;60.67;99669.38;5072639;28;46066;-40
2022/11/18 06:52:51;;;;;;;;;2.50;1.75;;;;;11.50;60.70;99682.53;5066746;27;46218;-40
2022/11/18 06:55:16;;;;;;;;;1.00;1.00;;;;;11.51;60.49;99684.25;5102111;27;45525;-40
2022/11/18 06:57:41;;;;;;;;;3.50;1.75;;;;;11.50;60.66;99679.09;5074359;28;69361;-40
2022/11/18 07:00:07;;;;;;;;;3.75;2.50;;;;;11.51;60.38;99692.13;5075955;27;65704;-40
2022/11/18 07:02:35;;;;;;;;;3.00;2.00;;;;;11.48;60.28;99692.25;5081004;27;45342;-40
2022/11/18 07:05:00;;;;;;;;;1.50;1.00;;;;;11.47;60.36;99700.19;5069592;27;45878;-40
2022/11/18 07:07:26;;;;;;;;;4.50;2.00;;;;;11.43;60.56;99709.97;5074554;27;45271;-40
2022/11/18 07:09:51;;;;;;;;;3.25;2.00;;;;;11.39;60.38;99709.25;5059106;28;45520;-39
2022/11/18 07:12:16;;;;;;;;;3.50;2.00;;;;;11.35;60.49;99715.56;5071469;27;46857;-39
2022/11/18 07:14:42;;;;;;;;;3.00;1.25;;;;;11.32;60.48;99720.09;5065987;27;66975;-39
2022/11/18 07:17:07;;;;;;;;;1.00;1.00;;;;;11.31;60.51;99724.47;5075980;28;64197;-39
2022/11/18 07:19:32;;;;;;;;;4.75;2.00;;;;;11.31;60.57;99732.31;5055933;28;45361;-39
2022/11/18 07:21:58;;;;;;;;;5.00;2.75;;;;;11.32;60.59;99720.09;5066013;28;57404;-39
2022/11/18 07:24:24;;;;;;;;;2.75;2.00;;;;;11.33;60.51;99727.91;5070297;27;45383;-39
2022/11/18 07:26:51;;;;;;;;;1.75;1.25;;;;;11.28;60.56;99732.50;5071937;27;45680;-38
2022/11/18 07:29:17;;;;;;;;;5.25;2.25;;;;;11.28;60.68;99742.09;5068639;27;45341;-39
2022/11/18 07:31:42;;;;;;;;;3.25;1.00;;;;;11.26;60.70;99742.19;5060640;28;68374;-39
2022/11/18 07:34:07;;;;;;;;;4.25;2.75;;;;;11.27;60.61;99754.34;5081542;27;46965;-39
2022/11/18 07:36:33;;;;;;;;;1.00;1.00;;;;;11.26;60.72;99755.28;5071639;27;45216;-39
2022/11/18 07:38:58;;;;;;;;;6.75;3.00;;;;;11.25;60.83;99761.44;5064163;27;45280;-39
2022/11/18 07:41:26;;;;;;;;;4.00;2.75;;;;;11.27;60.97;99767.44;5068561;27;45664;-39
2022/11/18 07:43:53;;;;;;;;;2.00;2.00;;;;;11.27;60.81;99764.81;5073520;27;45406;-39
2022/11/18 07:46:24;;;;;;;;;2.00;1.75;;;;;11.27;60.65;99764.00;5076975;27;45393;-39
2022/11/18 07:48:51;;;;;;;;;2.00;1.50;;;;;11.29;60.84;99768.22;5078707;27;45574;-38
2022/11/18 07:51:19;;;;;;;;;4.50;2.50;;;;;11.29;60.71;99776.06;5075692;27;45617;-38
2022/11/18 07:53:45;;;;;;;;;1.25;1.25;;;;;11.31;60.92;99779.47;5078188;27;45736;-38
2022/11/18 07:56:11;;;;;;;;;6.50;3.00;;;;;11.32;60.54;99780.34;5081093;28;45308;-38
2022/11/18 07:58:36;;;;;;;;;3.75;2.25;;;;;11.33;60.86;99795.13;5078621;27;45346;-38
2022/11/18 08:01:09;;;;;;;;;3.50;2.00;;;;;11.33;61.10;99787.25;5079261;28;46532;-39
2022/11/18 08:03:35;;;;;;;;;4.50;2.25;;;;;11.34;60.87;99789.81;5071839;28;45285;-38
2022/11/18 08:06:01;;;;;;;;;1.50;1.00;;;;;11.33;60.50;99797.75;5082072;27;45352;-39
2022/11/18 08:08:27;;;;;;;;;3.25;2.00;;;;;11.32;60.94;99793.44;5080301;27;45200;-39
2022/11/18 08:11:00;;;;;;;;;8.50;2.25;;;;;11.34;60.99;99802.91;5080845;27;46971;-39
2022/11/18 08:13:26;;;;;;;;;4.25;2.00;;;;;11.40;61.08;99801.78;5081907;27;45760;-39
2022/11/18 08:15:52;;;;;;;;;7.75;3.00;;;;;11.44;60.39;99802.50;5079237;27;45319;-39
2022/11/18 08:18:17;;;;;;;;;3.00;1.25;;;;;11.44;60.98;99798.13;5080085;27;45196;-38
2022/11/18 08:20:46;;;;;;;;;2.75;1.00;;;;;11.45;60.80;99796.34;5077176;28;64678;-39
2022/11/18 08:23:12;;;;;;;;;4.00;2.00;;;;;11.49;60.54;99797.91;5081818;27;45510;-39
2022/11/18 08:25:38;;;;;;;;;5.00;1.50;;;;;11.48;60.87;99804.91;5080134;28;45511;-39
2022/11/18 08:28:03;;;;;;;;;3.50;2.25;;;;;11.48;60.72;99798.84;5079621;27;45570;-38
2022/11/18 08:30:29;;;;;;;;;4.00;3.00;;;;;11.52;60.71;99810.88;5078955;27;45542;-38
2022/11/18 08:32:55;;;;;;;;;4.50;2.00;;;;;11.54;60.61;99812.50;5077383;28;72903;-38
2022/11/18 08:35:20;;;;;;;;;3.00;2.00;;;;;11.51;60.85;99812.66;5079205;27;45275;-38
2022/11/18 08:37:45;;;;;;;;;5.00;2.75;;;;;11.52;60.79;99816.94;5075666;27;48269;-38
2022/11/18 08:40:11;;;;;;;;;6.25;4.00;;;;;11.56;60.58;99818.53;5076338;28;70000;-38
2022/11/18 08:42:37;;;;;;;;;2.00;1.00;;;;;11.60;60.48;99814.00;5081656;27;45248;-38
2022/11/18 08:45:07;;;;;;;;;4.00;3.00;;;;;11.59;60.71;99815.75;5077672;27;45356;-38
2022/11/18 08:47:32;;;;;;;;;3.00;2.00;;;;;11.56;60.87;99817.66;5078461;28;45487;-38
2022/11/18 08:49:58;;;;;;;;;4.50;2.75;;;;;11.58;60.63;99821.09;5073619;27;46236;-38
2022/11/18 08:52:23;;;;;;;;;6.50;3.00;;;;;11.59;60.72;99818.38;5077337;27;65559;-40
2022/11/18 08:54:49;;;;;;;;;4.50;2.00;;;;;11.66;60.92;99825.97;5076094;27;54113;-38
2022/11/18 08:57:14;;;;;;;;;1.25;1.25;;;;;11.68;60.68;99827.56;5077189;27;45457;-37
2022/11/18 08:59:39;;;;;;;;;6.00;3.00;;;;;11.72;60.79;99829.16;5073654;27;45890;-37
2022/11/18 09:02:05;;;;;;;;;3.00;2.00;;;;;11.75;60.65;99836.00;5067747;27;56255;-37
2022/11/18 09:04:30;;;;;;;;;3.00;1.50;;;;;11.74;60.68;99832.53;5082741;27;50300;-37
2022/11/18 09:06:55;;;;;;;;;2.50;1.00;;;;;11.74;60.35;99831.72;5076035;27;64656;-37
2022/11/18 09:09:21;;;;;;;;;2.75;1.50;;;;;11.77;60.27;99835.03;5076571;27;75415;-37
2022/11/18 09:11:46;;;;;;;;;2.75;1.00;;;;;11.80;60.47;99833.19;5078051;27;45288;-37
2022/11/18 09:14:11;;;;;;;;;3.75;2.00;;;;;11.83;60.45;99833.03;5085157;27;45284;-37
2022/11/18 09:16:37;;;;;;;;;5.50;3.00;;;;;11.89;60.72;99838.00;5071563;27;45299;-38
2022/11/18 09:19:02;;;;;;;;;7.50;4.50;;;;;11.94;60.18;99844.75;5079557;27;46281;-37
2022/11/18 09:21:28;;;;;;;;;3.25;1.00;;;;;11.99;60.70;99839.31;5077051;28;45439;-38
2022/11/18 09:23:53;;;;;;;;;3.25;1.50;;;;;12.02;60.33;99848.78;5079264;28;58909;-38
2022/11/18 09:26:21;;;;;;;;;2.00;1.25;;;;;12.03;60.02;99847.88;5080808;27;45414;-38
2022/11/18 09:28:47;;;;;;;;;2.25;1.00;;;;;12.05;60.00;99854.72;5078172;28;47140;-38
2022/11/18 09:31:15;;;;;;;;;4.25;1.00;;;;;12.06;60.42;99856.44;5078890;27;67329;-37
2022/11/18 09:33:40;;;;;;;;;7.50;4.75;;;;;12.11;60.30;99862.31;5078965;27;45335;-38
2022/11/18 09:36:12;;;;;;;;;5.00;2.00;;;;;12.14;60.48;99858.69;5080725;27;49127;-38
2022/11/18 09:38:38;;;;;;;;;4.75;3.00;;;;;12.20;60.18;99854.91;5080164;27;45684;-38
2022/11/18 09:41:05;;;;;;;;;5.00;3.00;;;;;12.25;60.01;99861.66;5075156;28;53225;-37
2022/11/18 09:43:42;;;;;;;;;4.50;3.75;;;;;12.30;59.98;99854.41;5079305;28;45331;-38
2022/11/18 09:46:33;;;;;;;;;4.25;3.00;;;;;12.35;59.85;99854.19;5071205;27;45450;-38
2022/11/18 09:49:11;;;;;;;;;1.00;1.00;;;;;12.39;60.12;99854.88;5053841;27;46599;-37
2022/11/18 09:51:48;;;;;;;;;4.25;1.00;;;;;12.41;59.56;99856.53;5078683;27;45473;-37
2022/11/18 09:54:20;;;;;;;;;8.00;4.00;;;;;12.45;60.00;99858.06;5077397;27;46005;-37
2022/11/18 09:56:47;;;;;;;;;5.75;2.75;;;;;12.49;59.66;99857.00;5079788;27;45499;-45
2022/11/18 09:59:13;;;;;;;;;4.50;4.50;;;;;12.56;59.66;99860.16;5072945;28;46268;-37
2022/11/18 10:01:39;;;;;;;;;4.25;2.25;;;;;12.63;59.81;99858.94;5078325;28;45268;-37
2022/11/18 10:04:05;;;;;;;;;5.50;1.50;;;;;12.66;59.78;99871.03;5078963;28;45360;-37
2022/11/18 10:06:32;;;;;;;;;2.00;2.00;;;;;12.68;59.51;99866.59;5079811;27;54829;-38
2022/11/18 10:09:19;;;;;;;;;1.75;1.00;;;;;12.70;58.95;99868.19;5077712;27;45457;-38
2022/11/18 10:12:09;;;;;;;;;2.00;1.00;;;;;12.73;59.27;99878.56;5078538;27;45757;-38
2022/11/18 10:14:40;;;;;;;;;1.00;1.00;;;;;12.77;59.08;99874.00;5074422;27;45427;-39
2022/11/18 10:17:37;;;;;;;;;3.75;3.00;;;;;12.82;59.27;99872.00;5075592;28;45283;-40
2022/11/18 10:20:09;;;;;;;;;5.75;2.00;;;;;12.87;59.24;99883.13;5062965;28;46183;-38
2022/11/18 10:22:52;;;;;;;;;2.50;1.00;;;;;12.90;59.08;99876.84;5071681;28;45934;-38
2022/11/18 10:25:18;;;;;;;;;0.50;0.50;;;;;12.90;58.94;99875.06;5069912;28;45482;-39
2022/11/18 10:27:46;;;;;;;;;1.50;1.00;;;;;12.89;59.07;99877.78;5075588;28;69498;-40
2022/11/18 10:30:22;;;;;;;;;3.00;3.00;;;;;12.93;59.02;99874.09;5073151;28;46110;-39
2022/11/18 10:33:02;;;;;;;;;2.50;1.00;;;;;12.94;58.99;99882.81;5068999;27;45170;-39
2022/11/18 10:35:36;;;;;;;;;3.00;1.00;;;;;12.97;58.77;99874.78;5067610;27;45476;-39
2022/11/18 10:38:15;;;;;;;;;6.25;2.00;;;;;13.00;58.76;99880.72;5075550;27;45419;-39
2022/11/18 10:40:59;;;;;;;;;3.75;1.00;;;;;13.02;58.60;99878.03;5068308;27;47116;-39
2022/11/18 10:43:44;;;;;;;;;1.75;1.50;;;;;13.04;58.56;99884.03;5068379;27;45785;-40
2022/11/18 10:46:27;;;;;;;;;7.00;2.25;;;;;13.06;59.06;99877.78;5073700;27;45267;-39
2022/11/18 10:49:07;;;;;;;;;6.00;3.50;;;;;13.12;58.53;99887.13;5074095;28;45388;-39
2022/11/18 10:51:37;;;;;;;;;5.25;2.25;;;;;13.19;58.56;99885.03;5065947;28;45466;-39
2022/11/18 10:54:08;;;;;;;;;4.00;2.00;;;;;13.25;58.30;99900.50;5079141;27;45359;-40
2022/11/18 10:57:01;;;;;;;;;3.75;2.00;;;;;13.30;58.18;99891.44;5078560;28;45433;-39
2022/11/18 10:59:51;;;;;;;;;3.25;2.00;;;;;13.37;58.23;99897.25;5073961;27;45469;-39
2022/11/18 11:02:29;;;;;;;;;3.00;2.00;;;;;13.41;57.87;99887.44;5079354;27;46311;-39
2022/11/18 11:04:55;;;;;;;;;3.25;2.50;;;;;13.45;57.06;99887.16;5076473;28;45436;-39
2022/11/18 11:07:30;;;;;;;;;3.50;1.00;;;;;13.45;57.44;99879.28;5074111;27;45256;-39
2022/11/18 11:09:59;;;;;;;;;3.50;1.75;;;;;13.48;57.74;99891.44;5078850;27;45344;-39
2022/11/18 11:12:27;;;;;;;;;7.00;5.25;;;;;13.54;57.50;99888.47;5078925;27;45400;-39
2022/11/18 11:15:00;;;;;;;;;4.75;4.00;;;;;13.60;58.18;99896.03;5077448;28;45422;-39
2022/11/18 11:17:25;;;;;;;;;4.50;2.25;;;;;13.67;57.34;99896.56;5077826;27;45417;-39
2022/11/18 11:19:57;;;;;;;;;5.75;3.00;;;;;13.70;57.37;99899.03;5079715;28;45406;-39
2022/11/18 11:22:23;;;;;;;;;6.25;2.00;;;;;13.71;57.37;99898.09;5074934;27;45362;-39
2022/11/18 11:24:48;;;;;;;;;2.25;1.75;;;;;13.73;57.10;99898.03;5075478;27;52666;-39
2022/11/18 11:27:16;;;;;;;;;1.75;0.00;;;;;13.76;57.00;99896.06;5079829;27;61878;-39
2022/11/18 11:30:00;;;;;;;;;5.50;3.25;;;;;13.78;56.95;99903.88;5075110;27;46097;-39
2022/11/18 11:32:54;;;;;;;;;3.50;1.00;;;;;13.80;57.38;99897.59;5070565;27;45467;-39
2022/11/18 11:35:26;;;;;;;;;5.75;2.75;;;;;13.84;57.04;99904.38;5067629;27;45911;-39
2022/11/18 11:38:03;;;;;;;;;4.50;2.75;;;;;13.89;57.08;99893.63;5081555;28;45451;-39
2022/11/18 11:40:36;;;;;;;;;4.00;4.00;;;;;13.92;57.05;99890.84;5045695;28;46066;-39
2022/11/18 11:43:21;;;;;;;;;3.50;1.25;;;;;13.97;56.45;99883.53;5055048;28;46199;-39
2022/11/18 11:46:18;;;;;;;;;1.00;1.00;;;;;14.01;56.54;99889.50;5062644;28;45384;-39
2022/11/18 11:48:49;;;;;;;;;5.50;4.00;;;;;14.03;56.32;99887.63;5078137;27;45380;-39
2022/11/18 11:51:20;;;;;;;;;2.25;2.25;;;;;14.07;56.67;99880.41;5072823;27;45269;-39
2022/11/18 11:54:04;;;;;;;;;6.75;2.25;;;;;14.11;56.42;99889.81;5072514;28;45359;-39
2022/11/18 11:56:37;;;;;;;;;2.50;1.00;;;;;14.15;56.29;99892.19;5075211;27;45530;-39